METAR Data
IDs: Format: Raw Decoded Include TAF

Data at: 1634 UTC 30 Oct 2020

Region: TOP
KATL 301552Z 33020G26KT 10SM FEW028 14/06 A3013 RMK AO2 PK WND 32029/1524 SLP204 T01440061

KBOS 301554Z 34014G22KT 3/4SM R04R/2600V3500FT -SN BR SCT006 OVC011 M01/M02 A2990 RMK AO2 TWR VIS 1 SLP123 P0002 T10111017

KBWI 301554Z 35008G18KT 10SM BKN023 BKN050 10/04 A2994 RMK AO2 SLP137 T01000044

KCLE 301551Z 34012G19KT 10SM SCT026 BKN041 OVC055 06/01 A3012 RMK AO2 RAB1458E16 SLP219 P0001 T00610011 $

KCLT 301552Z 35014KT 10SM FEW050 18/06 A3004 RMK AO2 SLP165 T01830061

KCVG 301552Z 30010KT 10SM BKN029 08/03 A3024 RMK AO2 SLP240 T00780028

KDCA 301628Z 32015G25KT 10SM BKN030 BKN037 12/06 A2998 RMK AO2 PRESRR T01170061

KDEN 301553Z 24007KT 10SM CLR 11/M02 A3023 RMK AO2 SLP211 T01111022

KDFW 301553Z 00000KT 10SM CLR 12/03 A3033 RMK AO2 SLP270 T01220033 $

KDTW 301553Z 33010KT 10SM FEW018 OVC055 04/M04 A3021 RMK AO2 SLP233 T00441044

KEWR 301602Z 36015KT 10SM -RA SCT011 BKN015 OVC033 04/03 A2992 RMK AO2 P0001 T00440028

KFLL 301553Z 24003KT 10SM SCT031 SCT060 SCT110 SCT180 29/24 A2995 RMK AO2 SLP142 T02940239 $

KIAD 301552Z 33014G22KT 10SM OVC026 10/05 A2997 RMK AO2 PRESRR SLP148 T01000050

KIAH 301553Z 04006KT 10SM FEW030 16/07 A3031 RMK AO2 SLP263 T01560072

KJFK 301551Z 01016KT 10SM -RA SCT013 BKN019 OVC043 04/02 A2990 RMK AO2 SLP125 P0002 T00440022 $

KLAS 301556Z 00000KT 10SM CLR 17/M06 A3014 RMK AO2 SLP195 T01671061

KLAX 301553Z 11007KT 8SM FEW005 FEW160 16/12 A3001 RMK AO2 SLP161 T01610117

KLGA 301551Z 01012KT 10SM -RA BKN015 OVC035 04/02 A2991 RMK AO2 SLP127 P0002 T00440017

KMCO 301553Z 34007KT 10SM FEW250 23/12 A3001 RMK AO2 SLP161 T02280122

KMDW 301553Z 32010KT 10SM FEW040 04/M07 A3030 RMK AO2 SLP268 T00391067 $

KMEM 301554Z 04007KT 10SM FEW013 11/04 A3033 RMK AO2 SLP271 T01060044

KMIA 301557Z VRB06KT 10SM BKN024 BKN034 31/24 A2996 RMK AO2 T03060244

KMSP 301553Z COR 18005KT 10SM BKN048 BKN065 02/M04 A3030 RMK AO2 SLP270 T00221039

KORD 301551Z 33009G17KT 10SM FEW040 04/M06 A3029 RMK AO2 SLP264 T00441056

KPDX 301617Z 26006KT 10SM OVC014 11/09 A3010 RMK AO2 T01110089

KPHL 301554Z 36012KT 10SM FEW012 BKN017 OVC024 06/03 A2993 RMK AO2 RAE32 SLP133 P0001 T00610033

KPHX 301551Z 09009KT 10SM FEW200 23/02 A3005 RMK AO2 SLP162 T02280017

KPIT 301551Z 32017KT 9SM BKN012 OVC025 06/04 A3004 RMK AO2 RAE06 SLP187 P0001 T00610039 $

KSAN 301551Z 00000KT 10SM FEW005 FEW180 18/09 A3003 RMK AO2 SLP167 T01830089

KSEA 301623Z 21013KT 10SM FEW010 SCT017 12/09 A2997 RMK AO2 T01220089

KSFO 301556Z 29006KT 8SM FEW008 12/10 A3009 RMK AO2 SLP187 T01170100

KSLC 301554Z 11004KT 10SM FEW200 08/M02 A3024 RMK AO2 SLP228 T00831022 VISNO NW RNWY $

KSTL 301551Z 00000KT 10SM CLR 08/02 A3033 RMK AO2 SLP274 T00780017

KTPA 301553Z 34008KT 10SM FEW050 23/12 A3004 RMK AO2 PK WND 28027/1536 SLP171 T02330117